Time;durP1;ratioP1;P1;durP2;ratioP2;P2;SDS_P1;SDS_P2;PMS_P1;PMS_P2;Temp;Humidity;BMP_temperature;BMP_pressure;BME280_temperature;BME280_humidity;BME280_pressure;Samples;Min_cycle;Max_cycle;Signal;HPM_P1;HPM_P2
2023/09/07 00:00:20;;;;;;;2.17;1.48;;;20.60;92.10;;;;;;5070638;28;20119;-76
2023/09/07 00:02:46;;;;;;;1.90;1.27;;;20.60;92.00;;;;;;5071672;28;20513;-76
2023/09/07 00:05:13;;;;;;;2.03;1.38;;;20.60;92.00;;;;;;5071414;28;20041;-77
2023/09/07 00:07:38;;;;;;;2.15;1.45;;;20.60;92.00;;;;;;5071620;28;20025;-77
2023/09/07 00:10:04;;;;;;;2.05;1.30;;;20.60;92.00;;;;;;5071891;28;20040;-76
2023/09/07 00:12:30;;;;;;;1.77;1.27;;;20.60;92.00;;;;;;5074341;28;20028;-76
2023/09/07 00:14:57;;;;;;;2.13;1.40;;;20.60;92.00;;;;;;5076963;28;20366;-76
2023/09/07 00:17:23;;;;;;;2.15;1.38;;;20.60;92.00;;;;;;5078283;28;20024;-76
2023/09/07 00:19:50;;;;;;;1.88;1.27;;;20.60;92.00;;;;;;5077155;28;20366;-77
2023/09/07 00:22:16;;;;;;;2.60;1.42;;;20.60;91.90;;;;;;5077184;28;20287;-76
2023/09/07 00:24:42;;;;;;;2.95;1.38;;;20.60;91.90;;;;;;5076523;28;20109;-76
2023/09/07 00:27:08;;;;;;;2.60;1.33;;;20.60;91.90;;;;;;5078235;28;20032;-76
2023/09/07 00:29:35;;;;;;;2.45;1.35;;;20.60;91.90;;;;;;5078165;28;20021;-77
2023/09/07 00:32:01;;;;;;;2.10;1.30;;;20.60;92.00;;;;;;5078263;28;20020;-76
2023/09/07 00:34:26;;;;;;;2.05;1.48;;;20.60;92.00;;;;;;5078020;28;20024;-76
2023/09/07 00:36:52;;;;;;;2.03;1.40;;;20.60;92.00;;;;;;5076852;28;20017;-77
2023/09/07 00:39:17;;;;;;;1.85;1.20;;;20.60;92.00;;;;;;5076970;28;20027;-77
2023/09/07 00:41:43;;;;;;;2.42;1.40;;;20.60;92.00;;;;;;5078138;28;20032;-78
2023/09/07 00:44:08;;;;;;;1.90;1.40;;;20.60;92.00;;;;;;5078000;28;20052;-78
2023/09/07 00:46:34;;;;;;;2.40;1.40;;;20.60;92.10;;;;;;5077917;28;20099;-77
2023/09/07 00:49:00;;;;;;;1.88;1.30;;;20.60;92.10;;;;;;5078039;28;20036;-76
2023/09/07 00:51:25;;;;;;;2.00;1.30;;;20.60;92.10;;;;;;5077858;28;20028;-78
2023/09/07 00:53:52;;;;;;;1.73;1.27;;;20.60;92.20;;;;;;5077808;28;20115;-77
2023/09/07 00:56:18;;;;;;;1.83;1.40;;;20.60;92.10;;;;;;5076906;28;20370;-76
2023/09/07 00:58:43;;;;;;;2.10;1.25;;;20.60;92.10;;;;;;5077875;28;20024;-76
2023/09/07 01:01:09;;;;;;;2.03;1.40;;;20.60;92.20;;;;;;5077901;28;20054;-77
2023/09/07 01:03:34;;;;;;;2.30;1.40;;;20.60;92.10;;;;;;5077557;28;20048;-78
2023/09/07 01:06:14;;;;;;;2.03;1.30;;;20.60;92.30;;;;;;5077842;28;20036;-77
2023/09/07 01:08:44;;;;;;;1.83;1.30;;;20.60;92.10;;;;;;5077859;28;20017;-78
2023/09/07 01:11:17;;;;;;;1.80;1.25;;;20.60;92.10;;;;;;5076591;28;20447;-78
2023/09/07 01:13:43;;;;;;;1.95;1.20;;;20.60;92.10;;;;;;5076326;28;20029;-78
2023/09/07 01:16:13;;;;;;;2.60;1.50;;;20.60;92.00;;;;;;5076588;28;20046;-76
2023/09/07 01:18:39;;;;;;;2.13;1.33;;;20.60;92.00;;;;;;5077612;28;20025;-77
2023/09/07 01:21:10;;;;;;;1.92;1.20;;;20.60;92.00;;;;;;5077904;28;20035;-77
2023/09/07 01:23:36;;;;;;;;;;;20.60;92.00;;;;;;5075325;28;20405;-77
2023/09/07 01:26:03;;;;;;;1.88;1.20;;;20.60;92.10;;;;;;5074815;28;19904;-78
2023/09/07 01:28:28;;;;;;;2.42;1.40;;;20.60;92.10;;;;;;5074482;28;20028;-78
2023/09/07 01:30:54;;;;;;;1.95;1.33;;;20.60;92.20;;;;;;5074503;28;20477;-77
2023/09/07 01:33:19;;;;;;;2.10;1.25;;;20.60;92.20;;;;;;5074463;28;20031;-76
2023/09/07 01:35:46;;;;;;;1.90;1.30;;;20.60;92.20;;;;;;5074144;28;20100;-76
2023/09/07 01:38:11;;;;;;;1.90;1.27;;;20.50;92.20;;;;;;5073219;28;20498;-78
2023/09/07 01:40:37;;;;;;;2.33;1.33;;;20.60;92.20;;;;;;5073104;28;20067;-77
2023/09/07 01:43:03;;;;;;;1.65;1.20;;;20.50;92.20;;;;;;5075712;28;20020;-76
2023/09/07 01:45:28;;;;;;;1.95;1.40;;;20.50;92.20;;;;;;5072231;28;20024;-76
2023/09/07 01:47:54;;;;;;;1.63;1.20;;;20.50;92.20;;;;;;5074194;28;20029;-75
2023/09/07 01:50:19;;;;;;;2.80;1.42;;;20.50;92.20;;;;;;5074111;28;20048;-76
2023/09/07 01:52:50;;;;;;;2.63;1.55;;;20.50;92.20;;;;;;5074107;28;20096;-76
2023/09/07 01:55:16;;;;;;;2.25;1.30;;;20.60;92.30;;;;;;5073849;28;20023;-76
2023/09/07 01:57:41;;;;;;;1.83;1.30;;;20.60;92.20;;;;;;5072591;28;20532;-76
2023/09/07 02:00:07;;;;;;;2.05;1.40;;;20.60;92.20;;;;;;5072808;28;20065;-76
2023/09/07 02:02:33;;;;;;;2.05;1.30;;;20.60;92.20;;;;;;5073728;28;20030;-76
2023/09/07 02:04:58;;;;;;;2.45;1.50;;;20.60;92.10;;;;;;5073497;28;20485;-76
2023/09/07 02:07:24;;;;;;;2.28;1.50;;;20.60;92.10;;;;;;5072509;28;20039;-76
2023/09/07 02:09:49;;;;;;;2.03;1.35;;;20.60;92.10;;;;;;5073779;28;20048;-76
2023/09/07 02:12:15;;;;;;;1.98;1.20;;;20.60;92.10;;;;;;5072555;28;20024;-76
2023/09/07 02:14:41;;;;;;;1.83;1.35;;;20.60;92.10;;;;;;5072121;28;20481;-76
2023/09/07 02:17:06;;;;;;;2.05;1.23;;;20.60;92.20;;;;;;5073469;28;20013;-76
2023/09/07 02:19:32;;;;;;;2.65;1.60;;;20.60;92.20;;;;;;5072217;28;20478;-76
2023/09/07 02:21:57;;;;;;;2.22;1.40;;;20.60;92.20;;;;;;5073540;28;20097;-76
2023/09/07 02:24:23;;;;;;;1.85;1.30;;;20.60;92.20;;;;;;5073219;28;20113;-76
2023/09/07 02:26:48;;;;;;;1.75;1.30;;;20.60;92.20;;;;;;5072103;28;20035;-76
2023/09/07 02:29:14;;;;;;;1.73;1.20;;;20.50;92.20;;;;;;5073386;28;20029;-76
2023/09/07 02:31:40;;;;;;;2.63;1.40;;;20.50;92.20;;;;;;5073191;28;20029;-76
2023/09/07 02:34:06;;;;;;;1.55;1.23;;;20.50;92.20;;;;;;5073159;28;20393;-76
2023/09/07 02:36:31;;;;;;;2.15;1.20;;;20.50;92.30;;;;;;5070861;28;20020;-76
2023/09/07 02:38:57;;;;;;;2.13;1.40;;;20.50;92.30;;;;;;5073163;28;20020;-75
2023/09/07 02:41:22;;;;;;;2.17;1.40;;;20.50;92.30;;;;;;5073332;28;20028;-76
2023/09/07 02:43:48;;;;;;;2.00;1.38;;;20.50;92.30;;;;;;5072743;28;20032;-76
2023/09/07 02:46:13;;;;;;;1.80;1.30;;;20.50;92.30;;;;;;5068224;28;20041;-76
2023/09/07 02:48:39;;;;;;;2.08;1.40;;;20.50;92.30;;;;;;5063459;28;20025;-75
2023/09/07 02:51:05;;;;;;;1.90;1.23;;;20.50;92.30;;;;;;5069146;28;20033;-75
2023/09/07 02:53:30;;;;;;;1.92;1.30;;;20.60;92.30;;;;;;5071440;28;20112;-73
2023/09/07 02:55:56;;;;;;;1.63;1.20;;;20.60;92.30;;;;;;5071474;28;20022;-76
2023/09/07 02:58:23;;;;;;;2.10;1.40;;;20.60;92.30;;;;;;5071523;28;20055;-76
2023/09/07 03:00:48;;;;;;;1.92;1.40;;;20.60;92.20;;;;;;5072830;28;20021;-76
2023/09/07 03:03:14;;;;;;;1.85;1.33;;;20.60;92.20;;;;;;5071276;28;20028;-75
2023/09/07 03:05:41;;;;;;;1.83;1.20;;;20.60;92.20;;;;;;5071244;28;20037;-75
2023/09/07 03:08:07;;;;;;;2.03;1.30;;;20.60;92.10;;;;;;5072423;28;20028;-76
2023/09/07 03:10:32;;;;;;;1.60;1.30;;;20.60;92.20;;;;;;5072546;28;20031;-76
2023/09/07 03:12:58;;;;;;;2.10;1.40;;;20.60;92.30;;;;;;5072440;28;20101;-76
2023/09/07 03:15:23;;;;;;;2.25;1.60;;;20.60;92.30;;;;;;5071025;28;20473;-76
2023/09/07 03:17:49;;;;;;;1.60;1.20;;;20.50;92.20;;;;;;5071041;28;20028;-76
2023/09/07 03:20:15;;;;;;;2.42;1.38;;;20.50;92.30;;;;;;5071113;28;20028;-76
2023/09/07 03:22:43;;;;;;;1.92;1.30;;;20.50;92.30;;;;;;5072321;28;20107;-76
2023/09/07 03:25:09;;;;;;;1.95;1.38;;;20.50;92.30;;;;;;5071953;28;20095;-75
2023/09/07 03:27:35;;;;;;;2.00;1.30;;;20.50;92.30;;;;;;5072271;28;20048;-76
2023/09/07 03:30:02;;;;;;;1.92;1.30;;;20.50;92.30;;;;;;5070909;28;20377;-76
2023/09/07 03:32:32;;;;;;;2.25;1.42;;;20.50;92.30;;;;;;5072114;28;20020;-75
2023/09/07 03:35:00;;;;;;;2.25;1.42;;;20.50;92.30;;;;;;5070779;28;20393;-75
2023/09/07 03:37:28;;;;;;;2.42;1.50;;;20.50;92.30;;;;;;5072057;28;20025;-75
2023/09/07 03:39:53;;;;;;;3.35;1.50;;;20.50;92.30;;;;;;5072172;28;20539;-76
2023/09/07 03:42:19;;;;;;;2.40;1.60;;;20.50;92.40;;;;;;5071982;28;20025;-76
2023/09/07 03:44:44;;;;;;;2.28;1.67;;;20.50;92.40;;;;;;5071347;28;20107;-76
2023/09/07 03:47:12;;;;;;;2.42;1.52;;;20.50;92.40;;;;;;5071641;28;20024;-76
2023/09/07 03:49:38;;;;;;;2.03;1.40;;;20.50;92.30;;;;;;5071957;28;20027;-76
2023/09/07 03:52:03;;;;;;;2.22;1.40;;;20.60;92.30;;;;;;5071862;28;20020;-76
2023/09/07 03:54:31;;;;;;;2.50;1.55;;;20.60;92.30;;;;;;5070323;28;20498;-76
2023/09/07 03:56:57;;;;;;;2.20;1.40;;;20.60;92.20;;;;;;5070617;28;20025;-76
2023/09/07 03:59:22;;;;;;;2.25;1.40;;;20.60;92.20;;;;;;5071778;28;20027;-76
2023/09/07 04:01:48;;;;;;;1.90;1.40;;;20.60;92.20;;;;;;5070444;28;20021;-76
2023/09/07 04:04:13;;;;;;;1.58;1.30;;;20.60;92.20;;;;;;5071512;28;20071;-76
2023/09/07 04:06:39;;;;;;;2.35;1.45;;;20.60;92.30;;;;;;5071707;28;20028;-76
2023/09/07 04:09:04;;;;;;;2.67;1.50;;;20.60;92.30;;;;;;5070452;28;20401;-76
2023/09/07 04:11:30;;;;;;;2.28;1.42;;;20.50;92.30;;;;;;5070284;28;20136;-77
2023/09/07 04:13:55;;;;;;;1.75;1.40;;;20.50;92.30;;;;;;5071610;28;20478;-76
2023/09/07 04:16:21;;;;;;;2.15;1.48;;;20.50;92.30;;;;;;5072059;28;20024;-76
2023/09/07 04:18:46;;;;;;;2.10;1.45;;;20.50;92.30;;;;;;5071511;28;20024;-76
2023/09/07 04:21:12;;;;;;;2.40;1.55;;;20.50;92.30;;;;;;5071728;28;20471;-76
2023/09/07 04:23:38;;;;;;;1.98;1.50;;;20.50;92.30;;;;;;5071414;28;20112;-76
2023/09/07 04:26:13;;;;;;;2.35;1.45;;;20.50;92.40;;;;;;5071803;28;20392;-76
2023/09/07 04:28:39;;;;;;;2.42;1.40;;;20.50;92.40;;;;;;5070444;28;20021;-76
2023/09/07 04:31:06;;;;;;;1.92;1.35;;;20.50;92.40;;;;;;5070115;28;20085;-76
2023/09/07 04:33:35;;;;;;;2.42;1.50;;;20.50;92.40;;;;;;5071449;28;20393;-75
2023/09/07 04:36:14;;;;;;;1.75;1.30;;;20.50;92.40;;;;;;5071564;28;20046;-76
2023/09/07 04:38:41;;;;;;;2.17;1.40;;;20.50;92.40;;;;;;5071411;28;20389;-76
2023/09/07 04:41:11;;;;;;;1.73;1.30;;;20.50;92.40;;;;;;5071442;28;20117;-76
2023/09/07 04:43:40;;;;;;;2.20;1.45;;;20.50;92.40;;;;;;5071067;28;20481;-76
2023/09/07 04:46:06;;;;;;;1.73;1.33;;;20.50;92.40;;;;;;5068380;28;20097;-76
2023/09/07 04:48:32;;;;;;;2.08;1.42;;;20.50;92.30;;;;;;5068353;28;20034;-76
2023/09/07 04:51:05;;;;;;;2.08;1.38;;;20.60;92.30;;;;;;5070100;28;20388;-77
2023/09/07 04:53:34;;;;;;;2.58;1.48;;;20.60;92.30;;;;;;5071125;28;20028;-75
2023/09/07 04:56:00;;;;;;;1.90;1.30;;;20.70;92.30;;;;;;5071372;28;20024;-76
2023/09/07 04:58:26;;;;;;;2.20;1.40;;;20.60;92.20;;;;;;5071474;28;20017;-76
2023/09/07 05:00:52;;;;;;;2.13;1.38;;;20.60;92.20;;;;;;5074360;28;20028;-75
2023/09/07 05:03:18;;;;;;;1.98;1.45;;;20.60;92.30;;;;;;5070380;28;20036;-76
2023/09/07 05:05:44;;;;;;;2.15;1.40;;;20.60;92.30;;;;;;5074413;28;20033;-76
2023/09/07 05:08:10;;;;;;;2.13;1.50;;;20.50;92.40;;;;;;5073532;28;20027;-76
2023/09/07 05:10:36;;;;;;;1.92;1.35;;;20.50;92.30;;;;;;5074735;28;20037;-77
2023/09/07 05:13:02;;;;;;;1.90;1.30;;;20.50;92.30;;;;;;5074912;28;20025;-76
2023/09/07 05:15:28;;;;;;;2.80;1.65;;;20.50;92.30;;;;;;5073208;28;20576;-76
2023/09/07 05:17:54;;;;;;;1.83;1.40;;;20.60;92.30;;;;;;5074671;28;20024;-76
2023/09/07 05:20:20;;;;;;;1.83;1.33;;;20.50;92.30;;;;;;5074685;28;20067;-76
2023/09/07 05:22:46;;;;;;;2.63;1.73;;;20.50;92.30;;;;;;5073516;28;20303;-76
2023/09/07 05:25:12;;;;;;;2.70;1.60;;;20.50;92.30;;;;;;5074393;28;20457;-76
2023/09/07 05:27:38;;;;;;;2.42;1.50;;;20.50;92.30;;;;;;5073101;28;20082;-76
2023/09/07 05:30:05;;;;;;;2.90;1.58;;;20.50;92.30;;;;;;5074473;28;20451;-76
2023/09/07 05:32:31;;;;;;;2.20;1.50;;;20.50;92.30;;;;;;5074456;28;20310;-76
2023/09/07 05:34:56;;;;;;;2.38;1.45;;;20.60;92.20;;;;;;5074177;28;20029;-76
2023/09/07 05:37:22;;;;;;;2.42;1.60;;;20.60;92.20;;;;;;5074381;28;20021;-76
2023/09/07 05:39:48;;;;;;;2.40;1.60;;;20.60;92.20;;;;;;5074287;28;20149;-76
2023/09/07 05:42:14;;;;;;;2.30;1.50;;;20.60;92.10;;;;;;5074326;28;20538;-76
2023/09/07 05:44:40;;;;;;;1.98;1.33;;;20.60;92.10;;;;;;5073451;28;20099;-76
2023/09/07 05:47:05;;;;;;;3.22;1.52;;;20.70;92.00;;;;;;5074231;28;20024;-76
2023/09/07 05:49:31;;;;;;;2.83;1.80;;;20.70;92.00;;;;;;5074201;28;20028;-76
2023/09/07 05:51:57;;;;;;;2.33;1.50;;;20.70;91.90;;;;;;5074146;28;20029;-76
2023/09/07 05:54:22;;;;;;;1.83;1.38;;;20.70;91.90;;;;;;5073862;28;20032;-76
2023/09/07 05:56:48;;;;;;;2.47;1.48;;;20.70;91.80;;;;;;5074110;28;20100;-76
2023/09/07 05:59:13;;;;;;;1.85;1.35;;;20.70;91.80;;;;;;5073880;28;20047;-76
2023/09/07 06:01:40;;;;;;;2.00;1.50;;;20.70;91.80;;;;;;5072760;28;20408;-76
2023/09/07 06:04:06;;;;;;;2.65;1.60;;;20.70;91.80;;;;;;5073628;28;20107;-76
2023/09/07 06:06:31;;;;;;;2.28;1.55;;;20.70;91.80;;;;;;5072600;28;20034;-76
2023/09/07 06:08:58;;;;;;;2.38;1.73;;;20.70;91.80;;;;;;5073808;28;20028;-76
2023/09/07 06:11:24;;;;;;;2.28;1.50;;;20.70;91.80;;;;;;5072068;28;20509;-76
2023/09/07 06:13:50;;;;;;;2.38;1.60;;;20.70;91.80;;;;;;5072314;28;20028;-76
2023/09/07 06:16:15;;;;;;;2.30;1.48;;;20.80;91.80;;;;;;5073733;28;20051;-76
2023/09/07 06:18:41;;;;;;;3.10;1.40;;;20.80;91.70;;;;;;5073350;28;20086;-76
2023/09/07 06:21:06;;;;;;;2.13;1.42;;;20.80;91.70;;;;;;5073750;28;20037;-76
2023/09/07 06:23:32;;;;;;;1.67;1.30;;;20.80;91.70;;;;;;5072014;28;20052;-76
2023/09/07 06:25:57;;;;;;;2.42;1.58;;;20.80;91.60;;;;;;5073576;28;20078;-76
2023/09/07 06:28:23;;;;;;;2.30;1.50;;;20.80;91.60;;;;;;5073534;28;20028;-76
2023/09/07 06:30:48;;;;;;;1.95;1.33;;;20.90;91.60;;;;;;5072219;28;20052;-76
2023/09/07 06:33:14;;;;;;;2.67;1.70;;;20.90;91.60;;;;;;5073350;28;20359;-76
2023/09/07 06:35:39;;;;;;;1.83;1.42;;;20.90;91.60;;;;;;5073047;28;20032;-76
2023/09/07 06:38:05;;;;;;;2.30;1.50;;;20.90;91.50;;;;;;5073273;28;20052;-76
2023/09/07 06:40:30;;;;;;;2.50;1.63;;;21.00;91.40;;;;;;5073389;28;20021;-76
2023/09/07 06:42:59;;;;;;;3.22;1.70;;;21.00;91.30;;;;;;5071971;28;20506;-76
2023/09/07 06:45:25;;;;;;;2.55;1.67;;;21.00;91.20;;;;;;5072370;28;20492;-76
2023/09/07 06:47:51;;;;;;;2.08;1.58;;;21.10;91.20;;;;;;5071706;28;20119;-76
2023/09/07 06:50:16;;;;;;;3.13;1.50;;;21.10;91.10;;;;;;5071808;28;20028;-76
2023/09/07 06:52:42;;;;;;;2.55;1.60;;;21.10;91.10;;;;;;5073100;28;20032;-76
2023/09/07 06:55:07;;;;;;;3.10;1.80;;;21.10;91.10;;;;;;5072654;28;20141;-76
2023/09/07 06:57:36;;;;;;;2.60;1.70;;;21.10;91.10;;;;;;5071442;28;20461;-77
2023/09/07 07:00:05;;;;;;;2.63;1.52;;;21.10;91.10;;;;;;5072872;28;20020;-77
2023/09/07 07:02:31;;;;;;;2.28;1.45;;;21.10;91.10;;;;;;5072669;28;20031;-77
2023/09/07 07:04:56;;;;;;;3.00;1.80;;;21.20;91.10;;;;;;5071142;28;20115;-76
2023/09/07 07:07:22;;;;;;;2.35;1.52;;;21.20;91.10;;;;;;5071381;28;20024;-77
2023/09/07 07:09:47;;;;;;;2.30;1.60;;;21.20;91.00;;;;;;5072442;28;20028;-76
2023/09/07 07:12:13;;;;;;;2.20;1.58;;;21.20;91.00;;;;;;5072517;28;20025;-76
2023/09/07 07:14:39;;;;;;;3.00;1.80;;;21.20;91.00;;;;;;5070936;28;20028;-76
2023/09/07 07:17:04;;;;;;;3.15;1.80;;;21.30;91.00;;;;;;5072509;28;20028;-76
2023/09/07 07:19:30;;;;;;;2.22;1.67;;;21.20;90.90;;;;;;5072382;28;20512;-77
2023/09/07 07:21:56;;;;;;;2.05;1.50;;;21.30;90.90;;;;;;5070584;28;20116;-77
2023/09/07 07:24:21;;;;;;;2.60;1.70;;;21.30;90.90;;;;;;5072147;28;20059;-77
2023/09/07 07:26:47;;;;;;;3.15;2.03;;;21.30;90.90;;;;;;5071010;28;20446;-77
2023/09/07 07:29:13;;;;;;;2.80;1.90;;;21.40;90.80;;;;;;5072247;28;20023;-76
2023/09/07 07:31:38;;;;;;;2.97;2.03;;;21.40;90.80;;;;;;5070782;28;20063;-76
2023/09/07 07:34:04;;;;;;;3.10;2.00;;;21.40;90.70;;;;;;5072004;28;20028;-76
2023/09/07 07:36:30;;;;;;;3.08;2.10;;;21.40;90.60;;;;;;5070945;28;20029;-76
2023/09/07 07:38:56;;;;;;;3.72;2.13;;;21.50;90.60;;;;;;5072095;28;20021;-77
2023/09/07 07:41:21;;;;;;;3.13;2.00;;;21.50;90.50;;;;;;5072109;28;20098;-76
2023/09/07 07:43:47;;;;;;;2.33;1.70;;;21.50;90.40;;;;;;5073212;28;20024;-76
2023/09/07 07:46:15;;;;;;;3.30;2.25;;;21.60;90.40;;;;;;5072396;28;20031;-76
2023/09/07 07:48:41;;;;;;;3.08;2.08;;;21.60;90.40;;;;;;5071914;28;20078;-76
2023/09/07 07:51:07;;;;;;;3.50;2.28;;;21.60;90.40;;;;;;5071980;28;20428;-76
2023/09/07 07:53:32;;;;;;;3.05;2.00;;;21.60;90.40;;;;;;5071585;28;20435;-75
2023/09/07 07:55:58;;;;;;;4.22;2.25;;;21.60;90.40;;;;;;5071971;28;20108;-76
2023/09/07 07:58:23;;;;;;;4.10;2.30;;;21.60;90.40;;;;;;5071698;28;20377;-76
2023/09/07 08:00:49;;;;;;;2.95;1.90;;;21.60;90.40;;;;;;5070606;28;20025;-77
2023/09/07 08:03:15;;;;;;;2.95;1.88;;;21.60;90.40;;;;;;5071788;28;20060;-76
2023/09/07 08:05:41;;;;;;;3.40;2.17;;;21.70;90.40;;;;;;5070314;28;20349;-76
2023/09/07 08:08:06;;;;;;;3.70;2.30;;;21.70;90.30;;;;;;5071761;28;20025;-76
2023/09/07 08:10:40;;;;;;;3.08;1.95;;;21.70;90.30;;;;;;5071624;28;20024;-76
2023/09/07 08:13:06;;;;;;;4.00;2.30;;;21.70;90.30;;;;;;5070547;28;20047;-77
2023/09/07 08:15:33;;;;;;;3.03;1.90;;;21.70;90.30;;;;;;5071396;28;20473;-76
2023/09/07 08:17:58;;;;;;;3.15;2.10;;;21.70;90.30;;;;;;5071589;28;20504;-76
2023/09/07 08:20:25;;;;;;;3.50;2.00;;;21.70;90.20;;;;;;5071637;28;20103;-76
2023/09/07 08:22:52;;;;;;;3.75;2.40;;;21.80;90.30;;;;;;5071646;28;20393;-76
2023/09/07 08:25:18;;;;;;;3.58;2.20;;;21.80;90.20;;;;;;5071451;28;20661;-76
2023/09/07 08:27:44;;;;;;;3.17;1.88;;;21.80;90.10;;;;;;5071391;28;20056;-76
2023/09/07 08:30:15;;;;;;;3.85;2.28;;;21.90;90.10;;;;;;5071608;28;20031;-76
2023/09/07 08:32:41;;;;;;;3.10;2.00;;;21.90;90.00;;;;;;5071480;28;20027;-76
2023/09/07 08:35:09;;;;;;;3.38;2.10;;;21.90;90.00;;;;;;5074157;28;20017;-76
2023/09/07 08:37:34;;;;;;;3.70;2.30;;;21.90;90.00;;;;;;5075363;28;20090;-76
2023/09/07 08:40:00;;;;;;;3.03;2.05;;;22.00;89.90;;;;;;5075695;28;20025;-76
2023/09/07 08:42:25;;;;;;;3.53;2.00;;;22.00;89.70;;;;;;5074270;28;20021;-76
2023/09/07 08:44:54;;;;;;;3.15;2.10;;;22.00;89.70;;;;;;5073648;28;20021;-76
2023/09/07 08:47:21;;;;;;;2.80;1.90;;;22.00;89.80;;;;;;5074249;28;20024;-76
2023/09/07 08:49:47;;;;;;;2.95;2.00;;;22.00;89.80;;;;;;5074002;28;20059;-76
2023/09/07 08:52:14;;;;;;;3.42;1.98;;;22.00;89.70;;;;;;5075283;28;20020;-76
2023/09/07 08:54:42;;;;;;;4.70;2.30;;;22.00;89.70;;;;;;5074873;28;20021;-76
2023/09/07 08:57:10;;;;;;;3.35;2.08;;;22.00;89.70;;;;;;5075102;28;20508;-76
2023/09/07 08:59:36;;;;;;;3.47;2.00;;;22.00;89.80;;;;;;5075124;28;20024;-76
2023/09/07 09:02:04;;;;;;;2.92;2.00;;;22.00;89.70;;;;;;5075074;28;20032;-76
2023/09/07 09:04:30;;;;;;;3.00;2.05;;;22.00;89.80;;;;;;5074751;28;20508;-76
2023/09/07 09:06:56;;;;;;;2.92;2.00;;;22.10;89.90;;;;;;5075066;28;20025;-77
2023/09/07 09:09:24;;;;;;;3.58;1.92;;;22.00;89.80;;;;;;5074876;28;20027;-76
2023/09/07 09:11:49;;;;;;;3.03;1.92;;;22.00;89.80;;;;;;5073479;28;20117;-76
2023/09/07 09:14:17;;;;;;;3.03;1.90;;;22.10;89.90;;;;;;5074589;28;20056;-76
2023/09/07 09:16:49;;;;;;;3.28;2.13;;;22.00;89.90;;;;;;5073599;28;20024;-76
2023/09/07 09:19:15;;;;;;;3.38;2.00;;;22.10;90.00;;;;;;5074672;28;20028;-76
2023/09/07 09:21:40;;;;;;;3.17;2.03;;;22.10;90.00;;;;;;5073392;28;20028;-77
2023/09/07 09:24:10;;;;;;;3.47;2.22;;;22.10;90.00;;;;;;5073160;28;20107;-76
2023/09/07 09:26:37;;;;;;;2.90;1.80;;;22.10;90.00;;;;;;5074554;28;20120;-76
2023/09/07 09:29:03;;;;;;;2.80;1.80;;;22.20;90.00;;;;;;5074593;28;20036;-76
2023/09/07 09:31:30;;;;;;;3.08;1.98;;;22.20;89.90;;;;;;5074427;28;20033;-75
2023/09/07 09:33:55;;;;;;;2.63;1.80;;;22.20;89.90;;;;;;5074195;28;20028;-76
2023/09/07 09:36:21;;;;;;;2.40;1.73;;;22.20;89.80;;;;;;5073273;28;20043;-76
2023/09/07 09:38:53;;;;;;;2.90;1.80;;;22.20;89.80;;;;;;5073087;28;20021;-76
2023/09/07 09:41:19;;;;;;;3.15;1.98;;;22.20;89.90;;;;;;5073313;28;20028;-76
2023/09/07 09:43:51;;;;;;;2.90;1.92;;;22.10;90.00;;;;;;5074030;28;20071;-76
2023/09/07 09:46:17;;;;;;;3.33;1.83;;;22.20;90.20;;;;;;5072134;28;20028;-76
2023/09/07 09:48:44;;;;;;;3.38;2.00;;;22.20;90.00;;;;;;5074090;28;20028;-77
2023/09/07 09:51:11;;;;;;;3.05;1.95;;;22.20;90.00;;;;;;5072911;28;20033;-77
2023/09/07 09:53:36;;;;;;;2.75;1.90;;;22.20;90.00;;;;;;5073780;28;20024;-76
2023/09/07 09:56:02;;;;;;;2.80;1.90;;;22.20;90.00;;;;;;5074112;28;20020;-76
2023/09/07 09:58:29;;;;;;;2.80;1.88;;;22.20;90.00;;;;;;5072729;28;20021;-77
2023/09/07 10:00:57;;;;;;;3.20;1.88;;;22.20;90.00;;;;;;5073940;28;20030;-76
2023/09/07 10:03:32;;;;;;;3.63;2.17;;;22.20;90.00;;;;;;5073944;28;20035;-77
2023/09/07 10:06:08;;;;;;;2.80;1.70;;;22.30;90.10;;;;;;5073872;28;20032;-76
2023/09/07 10:08:34;;;;;;;3.40;2.00;;;22.30;90.10;;;;;;5073677;28;20036;-77
2023/09/07 10:10:59;;;;;;;2.92;1.90;;;22.30;90.10;;;;;;5072447;28;20028;-77
2023/09/07 10:13:33;;;;;;;3.13;2.00;;;22.30;90.10;;;;;;5073668;28;20071;-75
2023/09/07 10:16:09;;;;;;;4.18;1.80;;;22.30;90.10;;;;;;5075508;28;20019;-77
2023/09/07 10:18:36;;;;;;;6.15;2.10;;;22.30;90.00;;;;;;5074418;28;20047;-77
2023/09/07 10:21:02;;;;;;;8.35;3.33;;;22.30;89.90;;;;;;5072390;28;20029;-77
2023/09/07 10:23:54;;;;;;;7.72;3.30;;;22.30;88.90;;;;;;5073612;28;20031;-77
2023/09/07 10:26:23;;;;;;;11.30;3.75;;;22.30;88.00;;;;;;5069483;28;20067;-77
2023/09/07 10:28:59;;;;;;;11.45;4.20;;;22.30;87.80;;;;;;5072287;28;20027;-77
2023/09/07 10:31:26;;;;;;;7.07;3.70;;;22.30;87.80;;;;;;5073413;28;20021;-77
2023/09/07 10:33:52;;;;;;;8.55;3.70;;;22.20;87.30;;;;;;5073091;28;20112;-77
2023/09/07 10:36:27;;;;;;;6.80;3.80;;;22.20;87.50;;;;;;5073384;28;20533;-77
2023/09/07 10:38:55;;;;;;;8.35;4.28;;;22.10;87.60;;;;;;5073320;28;20059;-77
2023/09/07 10:41:21;;;;;;;6.60;3.75;;;22.20;87.70;;;;;;5072030;28;20028;-77
2023/09/07 10:43:57;;;;;;;6.38;3.70;;;22.10;87.90;;;;;;5072871;28;20032;-77
2023/09/07 10:46:24;;;;;;;8.38;4.07;;;22.10;88.00;;;;;;5072936;28;20103;-77
2023/09/07 10:48:51;;;;;;;7.60;3.90;;;22.10;88.10;;;;;;5073110;28;20035;-77
2023/09/07 10:51:18;;;;;;;5.68;3.83;;;22.10;88.20;;;;;;5071699;28;20489;-77
2023/09/07 10:53:43;;;;;;;6.00;3.90;;;22.00;87.80;;;;;;5071525;28;20094;-77
2023/09/07 10:56:09;;;;;;;7.20;4.18;;;22.00;87.90;;;;;;5071417;28;20481;-77
2023/09/07 10:58:39;;;;;;;7.18;4.22;;;22.00;88.10;;;;;;5071127;28;20058;-77
2023/09/07 11:01:05;;;;;;;6.72;4.25;;;22.10;88.10;;;;;;5071631;28;20031;-77
2023/09/07 11:03:31;;;;;;;5.78;3.72;;;22.00;88.00;;;;;;5071187;28;20032;-75
2023/09/07 11:06:14;;;;;;;6.28;4.10;;;22.00;88.00;;;;;;5072640;28;20115;-77
2023/09/07 11:08:39;;;;;;;6.35;3.80;;;22.00;87.80;;;;;;5072623;28;20020;-77
2023/09/07 11:11:05;;;;;;;6.32;3.92;;;22.10;87.80;;;;;;5071363;28;20550;-77
2023/09/07 11:13:31;;;;;;;6.85;4.15;;;22.00;87.70;;;;;;5072232;28;20039;-75
2023/09/07 11:15:58;;;;;;;6.25;4.03;;;22.00;87.40;;;;;;5071315;28;20477;-77
2023/09/07 11:18:25;;;;;;;6.20;4.30;;;22.00;87.10;;;;;;5072534;28;20075;-77
2023/09/07 11:20:52;;;;;;;7.05;4.32;;;22.00;87.10;;;;;;5072425;28;20029;-77
2023/09/07 11:23:18;;;;;;;5.63;4.07;;;22.00;87.30;;;;;;5072609;28;20115;-77
2023/09/07 11:25:46;;;;;;;6.05;4.10;;;22.00;87.30;;;;;;5072187;28;20033;-77
2023/09/07 11:28:11;;;;;;;6.13;3.83;;;22.00;87.40;;;;;;5071068;28;20021;-77
2023/09/07 11:30:37;;;;;;;5.60;3.92;;;22.00;87.50;;;;;;5072198;28;20025;-77
2023/09/07 11:33:07;;;;;;;6.60;4.35;;;22.00;87.60;;;;;;5072321;28;20025;-77
2023/09/07 11:35:34;;;;;;;6.30;4.15;;;21.90;87.70;;;;;;5070920;28;20542;-77
2023/09/07 11:38:04;;;;;;;5.50;3.65;;;21.90;87.70;;;;;;5072152;28;20024;-77
2023/09/07 11:40:30;;;;;;;6.63;4.03;;;21.90;87.80;;;;;;5070936;28;20111;-77
2023/09/07 11:42:56;;;;;;;5.80;4.07;;;21.90;87.80;;;;;;5070989;28;20029;-76
2023/09/07 11:45:22;;;;;;;6.32;3.85;;;21.90;87.80;;;;;;5070660;28;20501;-77
2023/09/07 11:47:48;;;;;;;8.52;4.47;;;22.00;87.90;;;;;;5072089;28;20472;-76
2023/09/07 11:50:13;;;;;;;6.70;4.05;;;21.90;87.90;;;;;;5071917;28;20028;-77
2023/09/07 11:52:38;;;;;;;5.82;3.90;;;21.90;87.80;;;;;;5071939;28;20052;-77
2023/09/07 11:55:04;;;;;;;6.13;4.00;;;22.00;87.90;;;;;;5070486;28;20036;-76
2023/09/07 11:57:30;;;;;;;6.30;4.25;;;21.90;87.80;;;;;;5071705;28;20112;-77
2023/09/07 11:59:56;;;;;;;5.95;3.83;;;21.90;88.00;;;;;;5071924;28;20082;-77
2023/09/07 12:02:22;;;;;;;6.90;4.63;;;21.90;87.70;;;;;;5070718;28;20031;-77
2023/09/07 12:04:48;;;;;;;6.03;3.83;;;21.90;87.60;;;;;;5070160;28;20039;-77
2023/09/07 12:07:14;;;;;;;5.90;3.88;;;21.90;87.40;;;;;;5070543;28;20036;-77
2023/09/07 12:09:40;;;;;;;6.38;4.00;;;21.90;87.30;;;;;;5070317;28;20035;-77
2023/09/07 12:12:06;;;;;;;8.15;4.57;;;22.00;87.20;;;;;;5071884;28;20283;-77
2023/09/07 12:14:31;;;;;;;6.03;4.10;;;21.90;87.20;;;;;;5071526;28;20095;-77
2023/09/07 12:16:57;;;;;;;6.07;4.00;;;22.00;87.20;;;;;;5070556;28;20017;-77
2023/09/07 12:19:22;;;;;;;6.53;4.43;;;22.00;87.10;;;;;;5070512;28;20024;-77
2023/09/07 12:21:48;;;;;;;5.57;3.83;;;22.10;87.40;;;;;;5070472;28;20032;-77
2023/09/07 12:24:13;;;;;;;6.07;3.70;;;21.90;87.30;;;;;;5071458;28;20366;-77
2023/09/07 12:26:39;;;;;;;6.28;3.80;;;21.90;87.40;;;;;;5071606;28;20028;-76
2023/09/07 12:29:04;;;;;;;6.15;3.95;;;21.90;87.50;;;;;;5071681;28;20059;-77
2023/09/07 12:31:31;;;;;;;5.88;4.05;;;21.90;87.60;;;;;;5071655;28;20060;-77
2023/09/07 12:33:57;;;;;;;7.78;4.13;;;21.90;87.80;;;;;;5071399;28;20029;-76
2023/09/07 12:36:22;;;;;;;7.25;4.20;;;21.80;87.80;;;;;;5071646;28;20021;-77
2023/09/07 12:38:48;;;;;;;8.38;4.28;;;21.80;87.70;;;;;;5071412;28;20033;-77
2023/09/07 12:41:13;;;;;;;8.50;4.10;;;21.90;87.80;;;;;;5071509;28;20025;-77
2023/09/07 12:43:39;;;;;;;7.63;4.38;;;21.90;88.00;;;;;;5071188;28;20029;-77